createdAt,value
2019-02-22T00:01:33.714Z,23.48
2019-02-22T00:06:33.728Z,23.47
2019-02-22T00:11:33.687Z,23.46
2019-02-22T00:16:33.705Z,23.46
2019-02-22T00:21:33.655Z,23.45
2019-02-22T00:26:33.644Z,23.45
2019-02-22T00:31:34.271Z,23.45
2019-02-22T00:36:33.700Z,23.43
2019-02-22T00:41:33.695Z,23.43
2019-02-22T00:46:33.713Z,23.43
2019-02-22T00:51:33.699Z,23.42
2019-02-22T00:56:33.685Z,23.41
2019-02-22T01:01:33.683Z,23.41
2019-02-22T01:06:34.263Z,23.40
2019-02-22T01:11:33.763Z,23.41
2019-02-22T01:16:33.690Z,23.42
2019-02-22T01:21:33.681Z,23.41
2019-02-22T01:26:33.716Z,23.41
2019-02-22T01:31:33.685Z,23.41
2019-02-22T01:36:33.746Z,23.41
2019-02-22T01:41:33.734Z,23.40
2019-02-22T01:46:33.689Z,23.40
2019-02-22T01:51:33.691Z,23.41
2019-02-22T01:56:33.796Z,23.41
2019-02-22T02:01:33.699Z,23.42
2019-02-22T02:06:33.737Z,23.41
2019-02-22T02:11:33.739Z,23.42
2019-02-22T02:16:33.776Z,23.44
2019-02-22T02:21:33.792Z,23.45
2019-02-22T02:26:33.798Z,23.45
2019-02-22T02:31:33.791Z,23.45
2019-02-22T02:36:33.802Z,23.45
2019-02-22T02:41:33.741Z,23.46
2019-02-22T02:46:33.786Z,23.46
2019-02-22T02:51:33.802Z,23.47
2019-02-22T02:56:33.798Z,23.47
2019-02-22T03:01:33.801Z,23.48
2019-02-22T03:06:33.769Z,23.49
2019-02-22T03:11:33.790Z,23.50
2019-02-22T03:16:33.790Z,23.50
2019-02-22T03:21:33.824Z,23.51
2019-02-22T03:26:33.757Z,23.54
2019-02-22T03:31:33.792Z,23.55
2019-02-22T03:36:34.192Z,23.56
2019-02-22T03:41:33.962Z,23.58
2019-02-22T03:46:33.773Z,23.59
2019-02-22T03:51:33.798Z,23.61
2019-02-22T03:56:33.800Z,23.61
2019-02-22T04:01:33.802Z,23.63
2019-02-22T04:06:33.816Z,23.63
2019-02-22T04:11:45.090Z,23.63
2019-02-22T04:16:33.763Z,23.64
2019-02-22T04:21:33.783Z,23.64
2019-02-22T04:26:33.777Z,23.64
2019-02-22T04:31:33.789Z,23.65
2019-02-22T04:36:33.795Z,23.66
2019-02-22T04:41:33.789Z,23.66
2019-02-22T04:46:33.789Z,23.65
2019-02-22T04:51:33.798Z,23.66
2019-02-22T04:56:33.790Z,23.66
2019-02-22T05:01:33.839Z,23.65
2019-02-22T05:06:33.805Z,23.66
2019-02-22T05:11:33.797Z,23.67
2019-02-22T05:16:33.837Z,23.67
2019-02-22T05:21:33.829Z,23.67
2019-02-22T05:26:33.828Z,23.66
2019-02-22T05:31:33.829Z,23.68
2019-02-22T05:36:33.801Z,23.68
2019-02-22T05:41:34.283Z,23.66
2019-02-22T05:46:33.832Z,23.67
2019-02-22T05:51:33.829Z,23.67
2019-02-22T05:56:33.841Z,23.66
2019-02-22T06:01:33.853Z,23.66
2019-02-22T06:06:33.850Z,23.64
2019-02-22T06:11:33.846Z,23.65
2019-02-22T06:16:33.866Z,23.66
2019-02-22T06:21:33.843Z,23.65
2019-02-22T06:26:33.876Z,23.67
2019-02-22T06:31:33.870Z,23.66
2019-02-22T06:36:33.874Z,23.66
2019-02-22T06:41:33.879Z,23.65
2019-02-22T06:46:33.841Z,23.65
2019-02-22T06:51:33.846Z,23.63
2019-02-22T06:56:33.864Z,23.64
2019-02-22T07:01:34.064Z,23.63
2019-02-22T07:06:33.866Z,23.63
2019-02-22T07:11:33.889Z,23.62
2019-02-22T07:16:34.883Z,23.62
2019-02-22T07:21:44.070Z,23.60
2019-02-22T07:26:33.855Z,23.61
2019-02-22T07:31:34.832Z,23.60
2019-02-22T07:36:33.891Z,23.61
2019-02-22T07:41:34.433Z,23.61
2019-02-22T07:46:34.343Z,23.60
2019-02-22T07:51:33.901Z,23.59
2019-02-22T07:56:33.872Z,23.59
2019-02-22T08:01:33.896Z,23.58
2019-02-22T08:06:36.030Z,23.58
2019-02-22T08:11:33.903Z,23.58
2019-02-22T08:16:33.900Z,23.58
2019-02-22T08:21:33.843Z,23.57
2019-02-22T08:26:33.929Z,23.57
2019-02-22T08:31:34.258Z,23.57
2019-02-22T08:36:34.972Z,23.57
2019-02-22T08:41:33.895Z,23.56
2019-02-22T08:46:34.004Z,23.57
2019-02-22T08:51:33.914Z,23.56
2019-02-22T08:56:33.934Z,23.55
2019-02-22T09:01:35.679Z,23.55
2019-02-22T09:06:33.957Z,23.55
2019-02-22T09:11:33.932Z,23.54
2019-02-22T09:16:34.002Z,23.54
2019-02-22T09:21:33.898Z,23.55
2019-02-22T09:26:33.934Z,23.54
2019-02-22T09:31:33.927Z,23.54
2019-02-22T09:36:33.920Z,23.53
2019-02-22T09:41:33.905Z,23.54
2019-02-22T09:46:33.932Z,23.53
2019-02-22T09:51:33.918Z,23.52
2019-02-22T09:56:33.935Z,23.52
2019-02-22T10:01:33.919Z,23.51
2019-02-22T10:06:34.051Z,23.51
2019-02-22T10:11:33.907Z,23.50
2019-02-22T10:16:33.938Z,23.50
2019-02-22T10:21:33.998Z,23.49
2019-02-22T10:26:33.990Z,23.49
2019-02-22T10:31:33.947Z,23.48
2019-02-22T10:36:44.427Z,23.49
2019-02-22T10:41:33.966Z,23.48
2019-02-22T10:46:33.975Z,23.47
2019-02-22T10:51:34.256Z,23.48
2019-02-22T10:56:33.992Z,23.48
2019-02-22T11:01:33.955Z,23.45
2019-02-22T11:06:33.962Z,23.45
2019-02-22T11:11:33.996Z,23.45
2019-02-22T11:16:33.947Z,23.45
2019-02-22T11:21:33.995Z,23.44
2019-02-22T11:26:33.998Z,23.44
2019-02-22T11:31:33.981Z,23.43
2019-02-22T11:36:33.990Z,23.43
2019-02-22T11:41:33.999Z,23.42
2019-02-22T11:46:33.961Z,23.42
2019-02-22T11:51:34.046Z,23.41
2019-02-22T11:56:33.999Z,23.41
2019-02-22T12:01:33.965Z,23.40
2019-02-22T12:06:34.003Z,23.39
2019-02-22T12:11:33.969Z,23.38
2019-02-22T12:16:33.953Z,23.39
2019-02-22T12:21:34.002Z,23.37
2019-02-22T12:26:33.992Z,23.38
2019-02-22T12:31:33.988Z,23.38
2019-02-22T12:36:33.999Z,23.37
2019-02-22T12:41:33.999Z,23.37
2019-02-22T12:46:33.938Z,23.36
2019-02-22T12:51:33.954Z,23.35
2019-02-22T12:56:57.271Z,23.35
2019-02-22T13:01:33.995Z,23.35
2019-02-22T13:06:33.945Z,23.36
2019-02-22T13:11:33.964Z,23.34
2019-02-22T13:16:34.289Z,23.33
2019-02-22T13:21:34.025Z,23.34
2019-02-22T13:26:34.044Z,23.32
2019-02-22T13:31:34.038Z,23.32
2019-02-22T13:36:34.040Z,23.32
2019-02-22T13:41:34.042Z,23.30
2019-02-22T13:46:34.357Z,23.32
2019-02-22T13:51:34.185Z,23.29
2019-02-22T13:56:34.050Z,23.29
2019-02-22T14:01:34.015Z,23.27
2019-02-22T14:06:34.050Z,23.28
2019-02-22T14:11:34.421Z,23.26
2019-02-22T14:16:34.014Z,23.28
2019-02-22T14:21:35.093Z,23.26
2019-02-22T14:26:33.981Z,23.26
2019-02-22T14:31:34.070Z,23.26
2019-02-22T14:36:34.144Z,23.26
2019-02-22T14:41:34.006Z,23.25
2019-02-22T14:46:34.071Z,23.26
2019-02-22T14:51:33.998Z,23.23
2019-02-22T14:56:34.044Z,23.22
2019-02-22T15:01:35.607Z,23.22
2019-02-22T15:06:34.004Z,23.22
2019-02-22T15:11:34.066Z,23.21
2019-02-22T15:16:34.888Z,23.21
2019-02-22T15:21:34.619Z,23.19
2019-02-22T15:26:34.081Z,23.19
2019-02-22T15:31:36.324Z,23.19
2019-02-22T15:36:34.053Z,23.18
2019-02-22T15:41:34.065Z,23.18
2019-02-22T15:46:34.071Z,23.18
2019-02-22T15:51:34.545Z,23.17
2019-02-22T15:56:34.025Z,23.16
2019-02-22T16:01:36.365Z,23.17
2019-02-22T16:06:34.099Z,23.16
2019-02-22T16:11:34.093Z,23.16
2019-02-22T16:16:35.287Z,23.15
2019-02-22T16:21:34.085Z,23.17
2019-02-22T16:26:34.300Z,23.18
2019-02-22T16:31:35.350Z,23.19
2019-02-22T16:36:35.182Z,23.17
2019-02-22T16:41:34.072Z,23.18
2019-02-22T16:46:35.045Z,23.18
2019-02-22T16:51:34.086Z,23.19
2019-02-22T16:56:34.077Z,23.21
2019-02-22T17:01:34.075Z,23.22
2019-02-22T17:06:34.098Z,23.22
2019-02-22T17:11:34.070Z,23.22
2019-02-22T17:16:34.095Z,23.23
2019-02-22T17:21:34.086Z,23.24
2019-02-22T17:26:34.104Z,23.26
2019-02-22T17:31:34.119Z,23.26
2019-02-22T17:36:34.117Z,23.28
2019-02-22T17:41:34.078Z,23.29
2019-02-22T17:46:34.100Z,23.32
2019-02-22T17:51:34.115Z,23.34
2019-02-22T17:56:34.107Z,23.34
2019-02-22T18:01:34.092Z,23.36
2019-02-22T18:06:34.116Z,23.35
2019-02-22T18:11:34.118Z,23.37
2019-02-22T18:16:34.065Z,23.38
2019-02-22T18:21:34.134Z,23.38
2019-02-22T18:26:34.135Z,23.41
2019-02-22T18:31:34.131Z,23.42
2019-02-22T18:36:34.101Z,23.43
2019-02-22T18:41:34.135Z,23.41
2019-02-22T18:46:34.556Z,23.41
2019-02-22T18:51:34.204Z,23.40
2019-02-22T18:56:34.114Z,23.41
2019-02-22T19:01:34.154Z,23.40
2019-02-22T19:06:34.150Z,23.39
2019-02-22T19:11:34.146Z,23.40
2019-02-22T19:16:34.129Z,23.41
2019-02-22T19:21:34.121Z,23.41
2019-02-22T19:26:34.169Z,23.40
2019-02-22T19:31:34.148Z,23.41
2019-02-22T19:36:34.159Z,23.41
2019-02-22T19:41:34.153Z,23.41
2019-02-22T19:46:34.162Z,23.41
2019-02-22T19:51:34.158Z,23.41
2019-02-22T19:56:34.156Z,23.42
2019-02-22T20:01:34.170Z,23.42
2019-02-22T20:06:34.171Z,23.42
2019-02-22T20:11:34.138Z,23.41
2019-02-22T20:16:34.199Z,23.41
2019-02-22T20:21:34.171Z,23.42
2019-02-22T20:26:34.195Z,23.41
2019-02-22T20:31:34.191Z,23.40
2019-02-22T20:36:34.149Z,23.40
2019-02-22T20:41:34.144Z,23.40
2019-02-22T20:46:34.752Z,23.39
2019-02-22T20:51:34.170Z,23.39
2019-02-22T20:56:34.168Z,23.39
2019-02-22T21:01:34.164Z,23.39
2019-02-22T21:06:34.173Z,23.38
2019-02-22T21:11:34.167Z,23.38
2019-02-22T21:16:34.197Z,23.38
2019-02-22T21:21:34.198Z,23.37
2019-02-22T21:26:34.193Z,23.38
2019-02-22T21:31:34.206Z,23.37
2019-02-22T21:36:34.168Z,23.36
2019-02-22T21:41:34.213Z,23.35
2019-02-22T21:46:34.215Z,23.37
2019-02-22T21:51:34.211Z,23.37
2019-02-22T21:56:34.209Z,23.36
2019-02-22T22:01:34.215Z,23.35
2019-02-22T22:06:34.219Z,23.36
2019-02-22T22:11:34.226Z,23.36
2019-02-22T22:16:34.209Z,23.36
2019-02-22T22:21:34.208Z,23.36
2019-02-22T22:26:34.226Z,23.37
2019-02-22T22:31:34.193Z,23.37
2019-02-22T22:36:34.219Z,23.38
2019-02-22T22:41:34.546Z,23.38
2019-02-22T22:46:37.172Z,23.39
2019-02-22T22:51:34.215Z,23.40
2019-02-22T22:56:34.216Z,23.39
2019-02-22T23:01:35.027Z,23.40
2019-02-22T23:06:34.654Z,23.41
2019-02-22T23:11:34.774Z,23.41
2019-02-22T23:16:34.249Z,23.40
2019-02-22T23:21:34.244Z,23.42
2019-02-22T23:26:34.228Z,23.43
2019-02-22T23:31:34.231Z,23.43
2019-02-22T23:36:34.236Z,23.44
2019-02-22T23:41:34.254Z,23.45
2019-02-22T23:46:34.245Z,23.46
2019-02-22T23:51:34.255Z,23.45
2019-02-22T23:56:34.249Z,23.47
